Livingston, Texas
Current Conditions -  °F | °C
As of 6:53 AM on Saturday 22 Nov 2014 (Local Time) from KCXO Reporting Station
Haze Haze  
Wind Chill: 56°   Ceiling: 500
Heat Index: 56°   Visibility: 6mi
Dew Point: 55°   Wind: 5mph
Humidity: 97%   Direction: 110°ESE
Pressure: 30.1"   Gusts: NA
Location:  30.71°N, 94.94°W
Report Text: KCXO 221253Z AUTO 11004KT 6SM BR OVC005 13/13 A3010 RMK AO2 SLP189 T01330128
Loading
Personal Weather Stations






























Interactive Weather Map New forecast layout! Learn more

10-Day Weather Forecast

Advertisements
Track Severe Weather on mobile